Time;durP1;ratioP1;P1;durP2;ratioP2;P2;SDS_P1;SDS_P2;PMS_P1;PMS_P2;Temp;Humidity;BMP_temperature;BMP_pressure;BME280_temperature;BME280_humidity;BME280_pressure;Samples;Min_cycle;Max_cycle;Signal;HPM_P1;HPM_P2
2023/04/06 00:01:08;;;;;;;0.20;0.20;;;;;;;6.92;60.51;99984.88;5057531;28;20036;-65
2023/04/06 00:03:37;;;;;;;0.30;0.30;;;;;;;6.87;59.78;99988.69;5058603;28;20040;-72
2023/04/06 00:06:09;;;;;;;0.28;0.28;;;;;;;6.80;60.18;99985.66;5058819;28;20029;-64
2023/04/06 00:08:37;;;;;;;0.20;0.20;;;;;;;6.69;60.17;99982.53;5063337;28;20103;-66
2023/04/06 00:11:06;;;;;;;0.25;0.25;;;;;;;6.76;60.71;99980.00;5079629;28;20505;-69
2023/04/06 00:13:34;;;;;;;0.30;0.30;;;;;;;6.70;60.87;99984.13;5079441;28;20029;-67
2023/04/06 00:15:59;;;;;;;0.30;0.30;;;;;;;6.76;61.35;99979.19;5077993;28;20028;-66
2023/04/06 00:18:29;;;;;;;0.30;0.30;;;;;;;6.67;60.50;99979.31;5078085;28;20120;-66
2023/04/06 00:20:55;;;;;;;0.30;0.30;;;;;;;6.68;60.69;99975.38;5077888;28;20021;-65
2023/04/06 00:23:21;;;;;;;0.20;0.20;;;;;;;6.63;61.06;99978.38;5077609;28;20082;-67
2023/04/06 00:25:49;;;;;;;0.20;0.20;;;;;;;6.62;61.05;99979.53;5078546;28;20025;-66
2023/04/06 00:28:17;;;;;;;0.20;0.20;;;;;;;6.55;61.00;99982.00;5078084;28;20032;-63
2023/04/06 00:30:43;;;;;;;0.25;0.25;;;;;;;6.55;60.36;99979.25;5077963;28;20028;-66
2023/04/06 00:33:11;;;;;;;0.30;0.30;;;;;;;6.50;60.02;99979.50;5076724;28;20036;-68
2023/04/06 00:35:36;;;;;;;0.20;0.20;;;;;;;6.49;60.32;99988.91;5077984;28;20025;-68
2023/04/06 00:38:07;;;;;;;0.20;0.20;;;;;;;6.56;60.06;99983.66;5078248;28;20459;-65
2023/04/06 00:40:35;;;;;;;0.30;0.30;;;;;;;6.51;59.58;99989.38;5078182;28;20039;-65
2023/04/06 00:43:04;;;;;;;0.30;0.30;;;;;;;6.51;59.53;99975.56;5078275;28;20130;-65
2023/04/06 00:45:32;;;;;;;0.20;0.20;;;;;;;6.47;59.29;99980.16;5076886;28;20044;-65
2023/04/06 00:47:57;;;;;;;0.20;0.20;;;;;;;6.46;58.87;99981.31;5076537;28;20033;-62
2023/04/06 00:50:28;;;;;;;0.20;0.20;;;;;;;6.51;59.40;99975.56;5077281;28;20028;-65
2023/04/06 00:52:55;;;;;;;0.20;0.20;;;;;;;6.50;59.32;99974.75;5077514;28;20028;-63
2023/04/06 00:55:23;;;;;;;0.28;0.28;;;;;;;6.44;59.63;99981.63;5078630;28;20032;-66
2023/04/06 00:57:50;;;;;;;0.30;0.30;;;;;;;6.48;59.35;99981.75;5078517;28;20020;-66
2023/04/06 01:00:16;;;;;;;0.30;0.30;;;;;;;6.53;58.72;99976.03;5075524;28;20024;-65
2023/04/06 01:02:44;;;;;;;0.20;0.20;;;;;;;6.65;59.01;99986.31;5075299;28;20485;-63
2023/04/06 01:05:12;;;;;;;0.20;0.20;;;;;;;6.55;58.06;99979.25;5076933;28;20063;-66
2023/04/06 01:07:40;;;;;;;0.20;0.20;;;;;;;6.44;58.27;99980.81;5077932;28;20159;-65
2023/04/06 01:10:09;;;;;;;0.30;0.30;;;;;;;6.41;58.31;99979.56;5060730;28;20459;-66
2023/04/06 01:12:37;;;;;;;0.20;0.20;;;;;;;6.58;58.78;99978.56;5058258;28;20048;-67
2023/04/06 01:15:04;;;;;;;0.30;0.30;;;;;;;6.64;58.78;99968.09;5059635;28;20072;-69
2023/04/06 01:17:29;;;;;;;0.20;0.20;;;;;;;6.64;59.32;99979.97;5058774;28;20112;-68
2023/04/06 01:19:57;;;;;;;0.20;0.20;;;;;;;6.61;60.19;99979.88;5058036;28;20060;-66
2023/04/06 01:22:29;;;;;;;0.20;0.20;;;;;;;6.48;60.23;99965.19;5058637;28;20033;-67
2023/04/06 01:24:57;;;;;;;0.20;0.20;;;;;;;6.45;60.40;99974.16;5058129;28;20029;-66
2023/04/06 01:27:25;;;;;;;0.20;0.20;;;;;;;6.42;60.69;99974.84;5058180;28;20127;-69
2023/04/06 01:29:53;;;;;;;0.20;0.20;;;;;;;6.46;59.72;99967.50;5056643;28;20036;-68
2023/04/06 01:32:20;;;;;;;0.20;0.20;;;;;;;6.48;60.04;99979.00;5057826;28;20021;-67
2023/04/06 01:34:51;;;;;;;0.20;0.20;;;;;;;6.38;60.67;99976.66;5056510;28;20029;-64
2023/04/06 01:37:19;;;;;;;0.20;0.20;;;;;;;6.55;60.69;99974.56;5056638;28;20036;-67
2023/04/06 01:39:47;;;;;;;0.20;0.20;;;;;;;6.55;60.74;99982.00;5056943;28;20029;-68
2023/04/06 01:42:13;;;;;;;0.20;0.20;;;;;;;6.54;61.31;99981.19;5056793;28;20021;-70
2023/04/06 01:44:38;;;;;;;0.20;0.20;;;;;;;6.43;61.03;99979.22;5056896;28;20031;-66
2023/04/06 01:47:23;;;;;;;0.20;0.20;;;;;;;6.29;62.01;99990.56;5056870;28;20033;-67
2023/04/06 01:49:53;;;;;;;0.30;0.30;;;;;;;6.32;62.19;99989.06;5056498;28;20463;-63
2023/04/06 01:52:22;;;;;;;0.30;0.30;;;;;;;6.16;62.91;99975.06;5056829;28;20488;-65
2023/04/06 01:54:50;;;;;;;0.30;0.30;;;;;;;6.26;62.25;99994.00;5056372;28;20113;-66
2023/04/06 01:57:16;;;;;;;0.20;0.20;;;;;;;6.18;63.30;99990.19;5056303;28;20144;-66
2023/04/06 01:59:44;;;;;;;0.20;0.20;;;;;;;6.21;63.58;99994.22;5056571;28;20056;-69
2023/04/06 02:02:12;;;;;;;0.30;0.30;;;;;;;6.18;62.30;99987.41;5056531;28;20463;-66
2023/04/06 02:04:38;;;;;;;0.20;0.20;;;;;;;6.10;62.33;99988.28;5056148;28;20032;-66
2023/04/06 02:07:07;;;;;;;0.25;0.25;;;;;;;6.05;63.24;99988.47;5055936;28;20033;-66
2023/04/06 02:09:35;;;;;;;0.20;0.20;;;;;;;6.03;63.12;99986.06;5056999;28;20067;-65
2023/04/06 02:12:01;;;;;;;0.20;0.20;;;;;;;5.98;63.83;99985.47;5057383;28;20063;-67
2023/04/06 02:14:32;;;;;;;0.30;0.30;;;;;;;5.95;64.28;99986.13;5057022;28;20524;-67
2023/04/06 02:16:59;;;;;;;0.20;0.20;;;;;;;5.88;64.32;99975.59;5055773;28;20029;-64
2023/04/06 02:19:31;;;;;;;0.30;0.30;;;;;;;6.11;63.81;99975.28;5056365;28;20025;-64
2023/04/06 02:21:56;;;;;;;0.20;0.20;;;;;;;5.96;63.60;99976.69;5056325;28;20031;-64
2023/04/06 02:24:27;;;;;;;0.20;0.20;;;;;;;5.90;64.14;99983.53;5056293;28;20119;-68
2023/04/06 02:26:55;;;;;;;0.20;0.20;;;;;;;5.95;64.24;99986.94;5056139;28;20130;-66
2023/04/06 02:29:23;;;;;;;0.20;0.20;;;;;;;5.97;63.41;99983.84;5056261;28;20056;-68
2023/04/06 02:31:51;;;;;;;0.20;0.20;;;;;;;5.89;63.22;99976.41;5056800;28;20400;-71
2023/04/06 02:34:19;;;;;;;0.20;0.20;;;;;;;5.86;64.10;99982.59;5057261;28;20032;-69
2023/04/06 02:36:46;;;;;;;0.20;0.20;;;;;;;5.81;63.36;99980.03;5055915;28;20033;-65
2023/04/06 02:39:14;;;;;;;0.20;0.20;;;;;;;5.56;63.22;99968.84;5056131;28;20025;-67
2023/04/06 02:41:42;;;;;;;0.30;0.30;;;;;;;5.76;62.87;99987.38;5056158;28;20068;-64
2023/04/06 02:44:08;;;;;;;0.20;0.20;;;;;;;5.76;61.08;99989.34;5057075;28;20025;-68
2023/04/06 02:46:37;;;;;;;0.30;0.30;;;;;;;5.61;61.35;99982.44;5057301;28;20067;-65
2023/04/06 02:49:02;;;;;;;0.20;0.20;;;;;;;5.58;61.67;99983.09;5056386;28;20025;-68
2023/04/06 02:51:31;;;;;;;0.30;0.30;;;;;;;5.60;61.43;99983.59;5056069;28;20102;-68
2023/04/06 02:53:56;;;;;;;0.20;0.20;;;;;;;5.57;61.25;99981.50;5056657;28;20476;-70
2023/04/06 02:56:24;;;;;;;0.20;0.20;;;;;;;5.69;61.80;99978.00;5056332;28;20032;-68
2023/04/06 02:58:55;;;;;;;0.30;0.30;;;;;;;5.66;61.64;99979.50;5056780;28;20119;-64
2023/04/06 03:01:23;;;;;;;0.20;0.20;;;;;;;5.74;61.62;99975.84;5057073;28;20029;-65
2023/04/06 03:03:51;;;;;;;0.30;0.30;;;;;;;5.91;60.77;99979.63;5057482;28;20059;-66
2023/04/06 03:06:19;;;;;;;0.20;0.20;;;;;;;5.91;60.64;99980.50;5057212;28;20530;-64
2023/04/06 03:08:47;;;;;;;0.30;0.30;;;;;;;5.81;60.13;99974.53;5054663;28;20061;-63
2023/04/06 03:11:15;;;;;;;0.20;0.20;;;;;;;5.69;61.02;99987.09;5054261;28;20047;-64
2023/04/06 03:13:43;;;;;;;0.30;0.30;;;;;;;5.55;60.60;99978.25;5054440;28;20035;-66
2023/04/06 03:16:11;;;;;;;0.20;0.20;;;;;;;5.49;60.76;99985.13;5056780;28;20033;-64
2023/04/06 03:18:39;;;;;;;0.20;0.20;;;;;;;5.49;61.09;99974.09;5057386;28;20076;-67
2023/04/06 03:21:07;;;;;;;0.20;0.20;;;;;;;5.48;59.85;99978.75;5058990;28;20414;-67
2023/04/06 03:23:38;;;;;;;0.30;0.30;;;;;;;5.49;60.00;99979.59;5059267;28;20040;-66
2023/04/06 03:26:04;;;;;;;0.20;0.20;;;;;;;5.56;60.92;99985.41;5058993;28;20028;-61
2023/04/06 03:28:32;;;;;;;0.22;0.22;;;;;;;5.59;61.15;99993.00;5059307;28;20114;-65
2023/04/06 03:30:58;;;;;;;0.20;0.20;;;;;;;5.66;61.42;99985.00;5058246;28;20031;-63
2023/04/06 03:33:29;;;;;;;0.20;0.20;;;;;;;5.61;61.46;99981.63;5060001;28;20025;-66
2023/04/06 03:35:55;;;;;;;0.20;0.20;;;;;;;5.63;61.47;99984.84;5059565;28;20371;-68
2023/04/06 03:38:25;;;;;;;0.20;0.20;;;;;;;5.60;60.35;99988.31;5059851;28;20067;-63
2023/04/06 03:40:51;;;;;;;0.30;0.30;;;;;;;5.56;60.27;99985.41;5059195;28;20021;-70
2023/04/06 03:43:16;;;;;;;0.30;0.30;;;;;;;5.65;61.50;99986.16;5058604;28;20036;-67
2023/04/06 03:45:42;;;;;;;0.20;0.20;;;;;;;5.65;61.01;99980.63;5058370;28;20100;-66
2023/04/06 03:48:10;;;;;;;0.30;0.30;;;;;;;5.58;60.16;99983.09;5058427;28;20044;-61
2023/04/06 03:50:35;;;;;;;0.20;0.20;;;;;;;5.57;60.44;99991.72;5057234;28;20029;-62
2023/04/06 03:53:03;;;;;;;0.30;0.30;;;;;;;5.56;60.12;99985.41;5058881;28;20116;-65
2023/04/06 03:55:31;;;;;;;0.20;0.20;;;;;;;5.41;60.73;99972.97;5060093;28;20021;-63
2023/04/06 03:57:59;;;;;;;0.20;0.20;;;;;;;5.64;61.15;100003.03;5059593;28;20036;-67
2023/04/06 04:00:27;;;;;;;0.20;0.20;;;;;;;5.69;61.42;100006.41;5059261;28;20033;-64
2023/04/06 04:02:55;;;;;;;0.20;0.20;;;;;;;5.79;62.86;100011.53;5059654;28;20042;-63
2023/04/06 04:05:25;;;;;;;0.20;0.20;;;;;;;5.81;62.11;100013.19;5060983;28;20040;-69
2023/04/06 04:07:53;;;;;;;0.28;0.28;;;;;;;5.67;62.46;100007.91;5060611;28;20033;-61
2023/04/06 04:10:20;;;;;;;0.30;0.30;;;;;;;5.62;63.33;100008.91;5099220;28;20048;-70
2023/04/06 04:12:48;;;;;;;0.28;0.28;;;;;;;5.73;63.48;100012.88;5082620;28;20035;-64
2023/04/06 04:15:18;;;;;;;0.22;0.22;;;;;;;5.62;62.50;100008.91;5100319;28;20103;-67
2023/04/06 04:17:46;;;;;;;0.20;0.20;;;;;;;5.56;63.55;100017.72;5082657;28;20032;-64
2023/04/06 04:20:12;;;;;;;0.28;0.28;;;;;;;5.65;63.04;100021.22;5082938;28;20028;-68
2023/04/06 04:22:40;;;;;;;0.20;0.20;;;;;;;5.69;62.35;100017.44;5084027;28;20432;-61
2023/04/06 04:25:06;;;;;;;0.20;0.20;;;;;;;5.62;62.47;100010.84;5099814;28;20028;-62
2023/04/06 04:27:36;;;;;;;0.30;0.30;;;;;;;5.65;63.08;100021.22;5099113;28;20553;-68
2023/04/06 04:30:05;;;;;;;0.20;0.20;;;;;;;5.68;62.58;100021.34;5081303;28;20039;-64
2023/04/06 04:32:31;;;;;;;0.30;0.30;;;;;;;5.64;62.67;100025.91;5083446;28;20502;-68
2023/04/06 04:34:56;;;;;;;0.20;0.20;;;;;;;5.56;63.36;100021.28;5083102;28;20032;-67
2023/04/06 04:37:25;;;;;;;0.30;0.30;;;;;;;5.51;63.12;100024.22;5083164;28;20096;-65
2023/04/06 04:39:53;;;;;;;0.30;0.30;;;;;;;5.64;62.99;100020.41;5081650;28;20432;-65
2023/04/06 04:42:19;;;;;;;0.20;0.20;;;;;;;5.69;62.19;100028.50;5082191;28;20056;-72
2023/04/06 04:44:49;;;;;;;0.30;0.30;;;;;;;5.76;61.60;100034.31;5082295;28;20028;-72
2023/04/06 04:47:14;;;;;;;0.22;0.22;;;;;;;5.66;62.41;100034.69;5082503;28;20024;-67
2023/04/06 04:49:42;;;;;;;0.20;0.20;;;;;;;5.56;62.51;100031.50;5081872;28;20024;-67
2023/04/06 04:52:08;;;;;;;0.20;0.20;;;;;;;5.60;63.58;100043.50;5080042;28;20551;-72
2023/04/06 04:54:38;;;;;;;0.30;0.30;;;;;;;5.66;63.58;100040.22;5081491;28;20036;-67
2023/04/06 04:57:06;;;;;;;0.30;0.30;;;;;;;5.65;63.18;100046.06;5082754;28;20032;-63
2023/04/06 04:59:34;;;;;;;0.20;0.20;;;;;;;5.69;62.49;100042.28;5082304;28;20032;-62
2023/04/06 05:02:02;;;;;;;0.20;0.20;;;;;;;6.11;61.51;100044.34;5099047;28;20030;-66
2023/04/06 05:04:30;;;;;;;0.30;0.30;;;;;;;6.97;58.27;100040.78;5099357;28;20032;-67
2023/04/06 05:07:22;;;;;;;0.25;0.25;;;;;;;7.82;55.77;100056.66;5082857;28;20470;-65
2023/04/06 05:09:50;;;;;;;0.25;0.25;;;;;;;8.43;52.23;100052.19;5078484;28;20062;-68
2023/04/06 05:12:19;;;;;;;0.20;0.20;;;;;;;9.15;51.11;100058.56;5057574;28;20033;-70
2023/04/06 05:14:48;;;;;;;0.20;0.20;;;;;;;9.79;49.19;100057.38;5058719;28;20033;-67
2023/04/06 05:17:15;;;;;;;0.20;0.20;;;;;;;10.49;47.93;100054.66;5057378;28;20433;-64
2023/04/06 05:19:44;;;;;;;0.22;0.22;;;;;;;11.16;46.30;100061.91;5056184;28;20064;-64
2023/04/06 05:22:10;;;;;;;0.20;0.20;;;;;;;11.78;43.96;100057.81;5055394;28;20510;-63
2023/04/06 05:24:35;;;;;;;0.20;0.20;;;;;;;12.20;43.74;100059.66;5055316;28;20072;-64
2023/04/06 05:27:04;;;;;;;0.20;0.20;;;;;;;12.75;42.54;100068.34;5055270;28;20025;-62
2023/04/06 05:29:35;;;;;;;0.25;0.25;;;;;;;13.15;41.42;100068.78;5055243;28;20029;-64
2023/04/06 05:32:01;;;;;;;0.20;0.20;;;;;;;13.49;40.26;100075.16;5055379;28;20461;-66
2023/04/06 05:34:30;;;;;;;0.20;0.20;;;;;;;14.04;39.57;100070.41;5054536;28;20091;-64
2023/04/06 05:36:55;;;;;;;0.20;0.20;;;;;;;14.14;38.69;100086.47;5053552;28;20021;-68
2023/04/06 05:39:21;;;;;;;0.20;0.20;;;;;;;14.38;37.92;100070.22;5053738;28;20131;-63
2023/04/06 05:41:49;;;;;;;0.20;0.20;;;;;;;14.87;37.80;100075.28;5054219;28;20025;-66
2023/04/06 05:44:17;;;;;;;0.20;0.20;;;;;;;15.36;36.43;100084.22;5055687;28;20037;-67
2023/04/06 05:46:43;;;;;;;0.20;0.20;;;;;;;15.39;35.61;100089.03;5054256;28;20040;-66
2023/04/06 05:49:12;;;;;;;0.20;0.20;;;;;;;14.30;36.92;100082.56;5054078;28;20037;-65
2023/04/06 05:51:38;;;;;;;0.20;0.20;;;;;;;13.06;39.41;100083.88;5054725;28;20025;-64
2023/04/06 05:54:08;;;;;;;0.20;0.20;;;;;;;12.25;40.74;100076.09;5038284;28;20110;-66
2023/04/06 05:56:34;;;;;;;0.20;0.20;;;;;;;11.65;42.53;100077.88;5054227;28;20029;-70
2023/04/06 05:59:02;;;;;;;0.20;0.20;;;;;;;11.86;43.31;100078.25;5054071;28;20025;-66
2023/04/06 06:01:32;;;;;;;0.20;0.20;;;;;;;11.96;42.93;100076.81;5053815;28;20039;-66
2023/04/06 06:04:03;;;;;;;0.20;0.20;;;;;;;11.57;42.98;100076.16;5054046;28;20021;-67
2023/04/06 06:06:33;;;;;;;0.20;0.20;;;;;;;11.66;43.45;100079.47;5053542;28;20040;-64
2023/04/06 06:09:00;;;;;;;0.20;0.20;;;;;;;12.55;41.50;100081.66;5052629;28;20128;-63
2023/04/06 06:11:28;;;;;;;0.20;0.20;;;;;;;12.81;41.41;100091.16;5052785;28;20120;-65
2023/04/06 06:13:59;;;;;;;0.20;0.20;;;;;;;12.47;40.99;100085.56;5053569;28;20033;-63
2023/04/06 06:16:24;;;;;;;0.20;0.20;;;;;;;11.56;42.36;100078.16;5053387;28;20024;-68
2023/04/06 06:18:52;;;;;;;0.20;0.20;;;;;;;11.07;44.80;100091.97;5053318;28;20071;-66
2023/04/06 06:21:20;;;;;;;0.20;0.20;;;;;;;11.01;45.01;100089.47;5053375;28;20029;-65
2023/04/06 06:23:48;;;;;;;0.20;0.20;;;;;;;11.25;44.81;100084.75;5053357;28;20115;-67
2023/04/06 06:26:13;;;;;;;0.20;0.20;;;;;;;11.23;45.54;100084.31;5053379;28;20063;-65
2023/04/06 06:28:42;;;;;;;0.20;0.20;;;;;;;11.25;45.55;100093.13;5052501;28;20387;-67
2023/04/06 06:31:07;;;;;;;0.20;0.20;;;;;;;11.85;44.34;100090.59;5054216;28;20036;-65
2023/04/06 06:33:33;;;;;;;0.20;0.20;;;;;;;12.73;41.42;100103.41;5052770;28;20025;-63
2023/04/06 06:36:01;;;;;;;0.20;0.20;;;;;;;13.47;40.08;100092.28;5053051;28;20082;-66
2023/04/06 06:38:27;;;;;;;0.20;0.20;;;;;;;13.40;40.05;100097.81;5053017;28;20112;-66
2023/04/06 06:40:53;;;;;;;0.20;0.20;;;;;;;14.06;38.89;100096.03;5053035;28;20531;-66
2023/04/06 06:43:20;;;;;;;0.20;0.20;;;;;;;15.04;37.41;100098.97;5052680;28;20371;-63
2023/04/06 06:45:46;;;;;;;0.20;0.20;;;;;;;15.12;36.78;100110.97;5052936;28;20036;-66
2023/04/06 06:48:14;;;;;;;0.20;0.20;;;;;;;16.17;35.18;100097.50;5053004;28;20021;-63
2023/04/06 06:50:40;;;;;;;0.20;0.20;;;;;;;16.56;34.08;100099.41;5052704;28;20468;-65
2023/04/06 06:53:08;;;;;;;0.20;0.20;;;;;;;16.68;34.13;100104.63;5052854;28;20086;-66
2023/04/06 06:55:34;;;;;;;0.20;0.20;;;;;;;17.40;32.59;100093.84;5055976;28;20067;-66
2023/04/06 06:58:02;;;;;;;0.20;0.20;;;;;;;17.62;31.75;100111.38;5055673;28;20064;-63
2023/04/06 07:00:30;;;;;;;0.20;0.20;;;;;;;17.72;31.51;100104.91;5055746;28;20110;-66
2023/04/06 07:02:58;;;;;;;0.20;0.20;;;;;;;17.16;31.82;100106.84;5055672;28;20056;-62
2023/04/06 07:05:24;;;;;;;0.20;0.20;;;;;;;16.50;32.53;100106.66;5057477;28;20548;-66
2023/04/06 07:07:49;;;;;;;0.20;0.20;;;;;;;16.12;33.58;100106.31;5055580;28;20144;-66
2023/04/06 07:10:20;;;;;;;0.20;0.20;;;;;;;16.10;33.83;100113.56;5055196;28;20186;-65
2023/04/06 07:12:48;;;;;;;0.20;0.20;;;;;;;16.29;33.36;100109.50;5055487;28;20036;-64
2023/04/06 07:15:16;;;;;;;0.20;0.20;;;;;;;16.22;32.70;100115.94;5055383;28;20127;-64
2023/04/06 07:17:47;;;;;;;0.20;0.20;;;;;;;16.24;33.11;100114.34;5055854;28;20036;-64
2023/04/06 07:20:15;;;;;;;0.20;0.20;;;;;;;16.56;31.95;100116.25;5055807;28;20033;-63
2023/04/06 07:22:43;;;;;;;0.20;0.20;;;;;;;16.88;31.02;100102.16;5055273;28;20078;-65
2023/04/06 07:25:09;;;;;;;0.20;0.20;;;;;;;16.55;31.54;100125.09;5056832;28;20416;-65
2023/04/06 07:27:34;;;;;;;0.20;0.20;;;;;;;16.73;31.64;100123.09;5055244;28;20033;-62
2023/04/06 07:30:03;;;;;;;0.20;0.20;;;;;;;17.17;31.86;100125.31;5055755;28;20025;-63
2023/04/06 07:32:35;;;;;;;0.20;0.20;;;;;;;17.07;31.66;100125.38;5055007;28;20033;-63
2023/04/06 07:35:06;;;;;;;0.20;0.20;;;;;;;16.61;31.56;100135.50;5055157;28;20064;-64
2023/04/06 07:37:34;;;;;;;0.20;0.20;;;;;;;16.64;30.62;100126.28;5055587;28;20427;-66
2023/04/06 07:40:05;;;;;;;0.20;0.20;;;;;;;17.55;29.59;100140.38;5055986;28;20036;-64
2023/04/06 07:42:31;;;;;;;0.20;0.20;;;;;;;17.25;29.34;100132.50;5054924;28;20036;-64
2023/04/06 07:44:59;;;;;;;0.20;0.20;;;;;;;17.11;29.67;100128.97;5054930;28;20029;-62
2023/04/06 07:47:27;;;;;;;0.20;0.20;;;;;;;15.88;31.18;100132.41;5057683;28;20506;-67
2023/04/06 07:49:55;;;;;;;0.20;0.20;;;;;;;16.03;30.27;100136.78;5060843;28;20044;-70
2023/04/06 07:52:23;;;;;;;0.20;0.20;;;;;;;16.72;30.56;100122.31;5058901;28;20032;-65
2023/04/06 07:54:49;;;;;;;0.20;0.20;;;;;;;16.87;30.03;100139.09;5055594;28;20364;-66
2023/04/06 07:57:15;;;;;;;0.20;0.20;;;;;;;17.58;29.55;100133.13;5054676;28;20029;-65
2023/04/06 07:59:44;;;;;;;0.20;0.20;;;;;;;18.56;28.01;100135.53;5056231;28;20134;-65
2023/04/06 08:02:09;;;;;;;0.20;0.20;;;;;;;18.80;27.38;100147.81;5054901;28;20025;-63
2023/04/06 08:04:37;;;;;;;0.20;0.20;;;;;;;19.17;26.98;100146.13;5053466;28;20494;-63
2023/04/06 08:07:03;;;;;;;0.20;0.20;;;;;;;19.01;25.80;100140.28;5054429;28;20082;-63
2023/04/06 08:09:29;;;;;;;0.20;0.20;;;;;;;18.13;27.56;100148.44;5054310;28;20040;-64
2023/04/06 08:11:57;;;;;;;0.20;0.20;;;;;;;17.73;26.86;100129.00;5054296;28;20025;-64
2023/04/06 08:14:27;;;;;;;0.20;0.20;;;;;;;18.07;26.70;100142.44;5054461;28;20460;-66
2023/04/06 08:16:55;;;;;;;0.20;0.20;;;;;;;18.89;25.65;100152.13;5054245;28;20091;-64
2023/04/06 08:19:23;;;;;;;0.20;0.20;;;;;;;18.02;26.45;100152.13;5054699;28;20463;-66
2023/04/06 08:21:52;;;;;;;0.20;0.20;;;;;;;17.33;27.14;100149.34;5054578;28;20032;-68
2023/04/06 08:24:20;;;;;;;0.20;0.20;;;;;;;17.57;26.80;100142.75;5055580;28;20102;-66
2023/04/06 08:26:50;;;;;;;0.20;0.20;;;;;;;18.18;25.54;100145.16;5054205;28;20025;-65
2023/04/06 08:29:16;;;;;;;0.20;0.20;;;;;;;16.55;27.49;100134.34;5054822;28;20033;-67
2023/04/06 08:31:44;;;;;;;0.20;0.20;;;;;;;15.74;29.03;100147.22;5054850;28;20419;-64
2023/04/06 08:34:10;;;;;;;0.20;0.20;;;;;;;15.02;30.29;100140.59;5054805;28;20060;-65
2023/04/06 08:36:35;;;;;;;0.20;0.20;;;;;;;15.99;28.88;100141.63;5054460;28;20092;-67
2023/04/06 08:39:01;;;;;;;0.20;0.20;;;;;;;15.69;28.78;100147.59;5054834;28;20123;-63
2023/04/06 08:41:27;;;;;;;0.20;0.20;;;;;;;16.62;28.80;100137.13;5054133;28;20360;-64
2023/04/06 08:44:00;;;;;;;0.20;0.20;;;;;;;17.11;26.62;100138.19;5054084;28;20037;-64
2023/04/06 08:46:30;;;;;;;0.20;0.20;;;;;;;17.93;26.52;100143.34;5054040;28;20108;-65
2023/04/06 08:49:00;;;;;;;0.20;0.20;;;;;;;18.24;24.90;100132.22;5053956;28;20036;-64
2023/04/06 08:51:28;;;;;;;0.20;0.20;;;;;;;18.64;24.62;100141.88;5053871;28;20490;-66
2023/04/06 08:53:56;;;;;;;0.20;0.20;;;;;;;17.79;25.40;100155.53;5053558;28;20067;-64
2023/04/06 08:56:28;;;;;;;0.20;0.20;;;;;;;17.28;26.03;100148.56;5053624;28;20025;-66
2023/04/06 08:58:55;;;;;;;0.20;0.20;;;;;;;16.79;26.50;100148.75;5053290;28;20139;-64
2023/04/06 09:01:29;;;;;;;0.20;0.20;;;;;;;16.54;27.48;100148.78;5054073;28;20025;-64
2023/04/06 09:04:01;;;;;;;0.20;0.20;;;;;;;15.88;28.20;100147.22;5054941;28;20028;-63
2023/04/06 09:06:33;;;;;;;0.20;0.20;;;;;;;14.51;29.25;100152.72;5053626;28;20029;-64
2023/04/06 09:08:59;;;;;;;0.20;0.20;;;;;;;14.10;30.13;100152.78;5053948;28;20468;-64
2023/04/06 09:11:25;;;;;;;0.20;0.20;;;;;;;13.87;31.05;100149.41;5053748;28;20127;-63
2023/04/06 09:13:52;;;;;;;0.20;0.20;;;;;;;13.92;30.91;100151.84;5053429;28;20392;-63
2023/04/06 09:16:23;;;;;;;0.20;0.20;;;;;;;13.77;30.72;100155.69;5054787;28;20029;-64
2023/04/06 09:18:54;;;;;;;0.20;0.20;;;;;;;13.16;32.25;100165.41;5055316;28;20110;-64
2023/04/06 09:21:27;;;;;;;0.20;0.20;;;;;;;13.57;32.17;100169.88;5053396;28;20053;-66
2023/04/06 09:24:02;;;;;;;0.30;0.30;;;;;;;13.62;31.26;100161.13;5053418;28;20034;-63
2023/04/06 09:26:33;;;;;;;0.20;0.20;;;;;;;13.79;31.27;100170.09;5053267;28;20029;-65
2023/04/06 09:29:00;;;;;;;0.20;0.20;;;;;;;13.96;29.79;100163.06;5053164;28;20039;-65
2023/04/06 09:31:39;;;;;;;0.20;0.20;;;;;;;15.07;29.05;100173.81;5053670;28;20538;-64
2023/04/06 09:34:07;;;;;;;0.20;0.20;;;;;;;16.21;27.26;100179.72;5053994;28;20021;-68
2023/04/06 09:36:41;;;;;;;0.20;0.20;;;;;;;16.97;27.05;100172.78;5053183;28;20132;-62
2023/04/06 09:39:08;;;;;;;;;;;;;;;17.22;26.95;100175.50;5053462;28;20063;-64
2023/04/06 09:41:39;;;;;;;0.20;0.20;;;;;;;18.11;26.54;100171.38;5069945;28;19958;-65
2023/04/06 09:44:11;;;;;;;0.20;0.20;;;;;;;17.66;26.30;100179.69;5053323;28;20102;-66
2023/04/06 09:46:45;;;;;;;0.20;0.20;;;;;;;17.24;27.25;100175.09;5053083;28;20043;-63
2023/04/06 09:49:12;;;;;;;0.20;0.20;;;;;;;15.71;28.50;100188.09;5052763;28;20029;-64
2023/04/06 09:51:53;;;;;;;0.20;0.20;;;;;;;15.61;29.15;100183.22;5052799;28;20039;-64
2023/04/06 09:54:21;;;;;;;0.20;0.20;;;;;;;15.92;28.10;100180.88;5053966;28;20040;-66
2023/04/06 09:56:55;;;;;;;0.20;0.20;;;;;;;17.20;27.43;100169.47;5052734;28;20021;-65
2023/04/06 09:59:41;;;;;;;0.20;0.20;;;;;;;18.14;25.96;100147.22;5052789;28;20472;-66
2023/04/06 10:02:20;;;;;;;0.20;0.20;;;;;;;19.48;25.07;100172.31;5052431;28;20079;-64
2023/04/06 10:04:56;;;;;;;0.20;0.20;;;;;;;19.04;24.76;100181.75;5052276;28;20424;-66
2023/04/06 10:07:24;;;;;;;0.20;0.20;;;;;;;17.76;26.20;100183.69;5052525;28;20029;-64
2023/04/06 10:09:51;;;;;;;0.20;0.20;;;;;;;15.66;28.62;100182.88;5082970;28;20052;-63
2023/04/06 10:12:20;;;;;;;0.20;0.20;;;;;;;15.34;29.67;100174.34;5075844;28;20478;-65
2023/04/06 10:14:51;;;;;;;0.20;0.20;;;;;;;15.21;29.87;100181.47;5092699;28;20031;-65
2023/04/06 10:17:17;;;;;;;0.20;0.20;;;;;;;14.56;30.25;100174.75;5093061;28;20119;-65
2023/04/06 10:19:48;;;;;;;0.20;0.20;;;;;;;14.29;31.12;100187.31;5075869;28;20526;-66
2023/04/06 10:22:24;;;;;;;0.20;0.20;;;;;;;15.22;30.06;100185.88;5076506;28;20085;-64
2023/04/06 10:24:55;;;;;;;0.20;0.20;;;;;;;16.21;28.80;100181.72;5094078;28;20035;-63
2023/04/06 10:27:31;;;;;;;0.20;0.20;;;;;;;17.03;26.92;100181.59;5093420;28;20058;-64
2023/04/06 10:30:04;;;;;;;0.20;0.20;;;;;;;17.55;26.37;100173.31;5100969;28;20055;-64
2023/04/06 10:32:38;;;;;;;0.20;0.20;;;;;;;17.89;25.35;100113.63;5099092;28;20035;-67
2023/04/06 10:35:12;;;;;;;;;;;;;;;17.34;26.70;100179.06;5082748;28;20066;-63
2023/04/06 10:38:00;;;;;;;;;;;;;;;17.49;26.24;100180.59;5099757;28;19908;-64
2023/04/06 10:40:31;;;;;;;0.20;0.20;;;;;;;17.07;26.91;100181.59;5100279;28;20023;-64
2023/04/06 10:43:18;;;;;;;0.20;0.20;;;;;;;17.09;26.29;100179.97;5082611;28;20028;-64
2023/04/06 10:45:44;;;;;;;0.20;0.20;;;;;;;17.20;26.72;100177.91;5099669;28;20035;-65
2023/04/06 10:48:13;;;;;;;0.20;0.20;;;;;;;16.05;27.51;100173.69;5082171;28;20028;-65
2023/04/06 10:50:40;;;;;;;0.20;0.20;;;;;;;16.39;27.40;100181.69;5099028;28;20028;-65
2023/04/06 10:53:10;;;;;;;0.20;0.20;;;;;;;15.79;28.90;100176.88;5082699;28;20359;-63
2023/04/06 10:55:40;;;;;;;0.20;0.20;;;;;;;15.79;28.14;100176.88;5082320;28;20032;-66
2023/04/06 10:58:11;;;;;;;0.20;0.20;;;;;;;15.46;29.36;100176.78;5082482;28;20428;-65
2023/04/06 11:00:44;;;;;;;0.20;0.20;;;;;;;15.09;29.95;100188.25;5082164;28;20035;-64
2023/04/06 11:03:12;;;;;;;0.20;0.20;;;;;;;14.96;30.72;100175.75;5099038;28;20089;-65
2023/04/06 11:05:43;;;;;;;0.20;0.20;;;;;;;14.52;31.79;100173.91;5099604;28;20024;-63
2023/04/06 11:08:10;;;;;;;0.20;0.20;;;;;;;14.28;31.85;100171.72;5082106;28;20475;-64
2023/04/06 11:10:38;;;;;;;0.20;0.20;;;;;;;14.37;31.10;100183.38;5082345;28;20100;-66
2023/04/06 11:13:05;;;;;;;0.20;0.20;;;;;;;14.49;32.90;100179.47;5099350;28;20023;-65
2023/04/06 11:15:35;;;;;;;0.20;0.20;;;;;;;13.68;33.56;100191.53;5082086;28;20020;-65
2023/04/06 11:18:04;;;;;;;0.20;0.20;;;;;;;13.44;34.39;100188.09;5081739;28;20032;-66
2023/04/06 11:20:30;;;;;;;0.20;0.20;;;;;;;13.67;34.11;100181.56;5082000;28;20020;-63
2023/04/06 11:22:58;;;;;;;0.20;0.20;;;;;;;13.89;33.97;100180.56;5081967;28;20055;-66
2023/04/06 11:25:24;;;;;;;0.20;0.20;;;;;;;13.84;34.19;100183.72;5082606;28;20441;-63
2023/04/06 11:27:53;;;;;;;0.20;0.20;;;;;;;13.74;34.21;100173.22;5083212;28;20398;-64
2023/04/06 11:30:19;;;;;;;0.20;0.20;;;;;;;14.45;34.48;100173.84;5101168;28;20089;-65
2023/04/06 11:32:48;;;;;;;0.20;0.20;;;;;;;14.89;34.01;100173.72;5083134;28;20032;-64
2023/04/06 11:35:23;;;;;;;0.30;0.30;;;;;;;14.64;32.72;100167.97;5100647;28;20028;-64
2023/04/06 11:37:50;;;;;;;0.20;0.20;;;;;;;14.52;33.54;100170.31;5086984;28;20051;-67